Jackson, North Carolina
Current Conditions -  °F | °C
As of 10:35 PM on Saturday 22 Nov 2014 (Local Time) from KIXA Reporting Station
Clear Clear  
Wind Chill: 32°   Ceiling: Unl
Heat Index: 32°   Visibility: 10mi
Dew Point: 27°   Wind: 3mph
Humidity: 80%   Direction: 230°SW
Pressure: 30.35"   Gusts: NA
Location:  36.39°N, 77.42°W
Report Text: KIXA 230335Z AUTO 23003KT 10SM CLR 00/M03 A3035 RMK AO2
Loading
Personal Weather Stations






























Interactive Weather Map New forecast layout! Learn more

10-Day Weather Forecast

Advertisements
Track Severe Weather on mobile